createdAt,value
2022-11-21T00:01:21.432Z,23.27
2022-11-21T00:03:50.155Z,21.55
2022-11-21T00:06:18.875Z,20.77
2022-11-21T00:08:51.079Z,23.15
2022-11-21T00:11:18.708Z,20.52
2022-11-21T00:13:47.268Z,22.25
2022-11-21T00:16:18.807Z,23.60
2022-11-21T00:18:46.697Z,22.65
2022-11-21T00:21:19.306Z,23.60
2022-11-21T00:23:48.018Z,23.15
2022-11-21T00:26:16.836Z,22.77
2022-11-21T00:28:49.113Z,21.85
2022-11-21T00:31:23.103Z,22.60
2022-11-21T00:33:53.154Z,24.00
2022-11-21T00:36:23.068Z,27.00
2022-11-21T00:38:51.154Z,28.95
2022-11-21T00:41:18.744Z,28.38
2022-11-21T00:43:46.274Z,29.88
2022-11-21T00:46:13.876Z,31.17
2022-11-21T00:48:42.477Z,30.23
2022-11-21T00:51:11.592Z,29.83
2022-11-21T00:53:39.554Z,31.33
2022-11-21T00:56:07.096Z,30.08
2022-11-21T00:58:35.249Z,31.25
2022-11-21T01:01:12.448Z,30.73
2022-11-21T01:03:40.961Z,31.50
2022-11-21T01:06:11.306Z,28.63
2022-11-21T01:08:41.373Z,25.95
2022-11-21T01:11:12.108Z,24.50
2022-11-21T01:13:41.721Z,24.08
2022-11-21T01:16:16.111Z,27.25
2022-11-21T01:18:45.020Z,23.85
2022-11-21T01:21:21.248Z,24.05
2022-11-21T01:23:49.428Z,24.20
2022-11-21T01:26:20.604Z,25.10
2022-11-21T01:28:48.811Z,25.15
2022-11-21T01:31:18.602Z,24.65
2022-11-21T01:33:47.003Z,25.38
2022-11-21T01:36:16.695Z,21.40
2022-11-21T01:41:15.173Z,19.97
2022-11-21T01:46:14.966Z,19.27
2022-11-21T01:48:58.752Z,19.50
2022-11-21T01:51:33.274Z,19.17
2022-11-21T01:54:07.330Z,19.42
2022-11-21T01:56:44.210Z,20.52
2022-11-21T01:59:17.390Z,18.73
2022-11-21T02:01:46.306Z,16.10
2022-11-21T02:04:14.381Z,16.58
2022-11-21T02:06:44.849Z,16.25
2022-11-21T02:09:12.999Z,15.02
2022-11-21T02:11:51.161Z,13.80
2022-11-21T02:14:18.984Z,14.27
2022-11-21T02:16:49.883Z,13.80
2022-11-21T02:19:40.131Z,14.98
2022-11-21T02:22:12.140Z,17.83
2022-11-21T02:25:00.849Z,23.55
2022-11-21T02:27:29.282Z,24.20
2022-11-21T02:29:57.202Z,39.20
2022-11-21T02:32:32.704Z,35.83
2022-11-21T02:35:00.664Z,36.65
2022-11-21T02:37:29.581Z,33.85
2022-11-21T02:40:01.661Z,29.48
2022-11-21T02:42:38.240Z,22.15
2022-11-21T02:45:12.007Z,16.83
2022-11-21T02:47:43.059Z,16.63
2022-11-21T02:50:15.640Z,14.10
2022-11-21T02:52:43.215Z,12.88
2022-11-21T02:55:15.713Z,13.43
2022-11-21T02:57:43.365Z,14.07
2022-11-21T03:00:11.927Z,14.18
2022-11-21T03:02:40.021Z,15.95
2022-11-21T03:05:09.583Z,20.70
2022-11-21T03:07:37.563Z,15.40
2022-11-21T03:10:05.713Z,15.73
2022-11-21T03:12:36.727Z,14.52
2022-11-21T03:15:08.940Z,14.35
2022-11-21T03:17:36.776Z,14.48
2022-11-21T03:20:05.307Z,11.88
2022-11-21T03:22:36.242Z,13.07
2022-11-21T03:25:04.342Z,15.07
2022-11-21T03:27:31.964Z,14.80
2022-11-21T03:29:59.594Z,16.38
2022-11-21T03:32:27.734Z,19.98
2022-11-21T03:34:55.395Z,19.20
2022-11-21T03:37:22.886Z,18.00
2022-11-21T03:39:50.535Z,13.73
2022-11-21T03:42:18.085Z,11.50
2022-11-21T03:44:45.909Z,11.43
2022-11-21T03:47:13.736Z,11.65
2022-11-21T03:49:41.873Z,9.55
2022-11-21T03:52:09.653Z,10.23
2022-11-21T03:54:37.410Z,8.48
2022-11-21T03:57:05.271Z,6.75
2022-11-21T03:59:33.607Z,7.30
2022-11-21T04:02:01.806Z,7.55
2022-11-21T04:04:30.293Z,8.25
2022-11-21T04:06:58.024Z,7.78
2022-11-21T04:09:25.874Z,6.43
2022-11-21T04:11:53.420Z,6.97
2022-11-21T04:14:20.980Z,7.90
2022-11-21T04:16:48.600Z,8.82
2022-11-21T04:19:16.275Z,8.30
2022-11-21T04:21:43.937Z,7.25
2022-11-21T04:24:11.560Z,8.50
2022-11-21T04:26:39.090Z,8.02
2022-11-21T04:29:06.807Z,7.47
2022-11-21T04:31:34.387Z,7.78
2022-11-21T04:34:02.542Z,8.68
2022-11-21T04:36:30.141Z,9.43
2022-11-21T04:38:57.761Z,10.40
2022-11-21T04:41:25.456Z,9.60
2022-11-21T04:43:53.616Z,10.07
2022-11-21T04:46:21.369Z,10.23
2022-11-21T04:48:50.046Z,10.75
2022-11-21T04:51:17.541Z,10.70
2022-11-21T04:53:45.344Z,10.32
2022-11-21T04:56:16.498Z,10.18
2022-11-21T04:58:45.362Z,9.82
2022-11-21T05:01:13.081Z,9.85
2022-11-21T05:03:40.719Z,9.90
2022-11-21T05:06:08.497Z,9.98
2022-11-21T05:08:36.055Z,10.93
2022-11-21T05:11:22.409Z,10.27
2022-11-21T05:13:53.809Z,11.98
2022-11-21T05:16:21.385Z,10.30
2022-11-21T05:18:49.034Z,9.68
2022-11-21T05:21:18.526Z,9.43
2022-11-21T05:23:47.385Z,9.40
2022-11-21T05:26:15.206Z,10.13
2022-11-21T05:28:42.997Z,10.70
2022-11-21T05:31:10.609Z,10.57
2022-11-21T05:33:38.388Z,11.18
2022-11-21T05:36:06.070Z,10.70
2022-11-21T05:38:33.952Z,10.18
2022-11-21T05:41:02.030Z,11.15
2022-11-21T05:43:55.842Z,11.18
2022-11-21T05:46:25.781Z,9.32
2022-11-21T05:48:54.740Z,9.32
2022-11-21T05:51:22.582Z,7.80
2022-11-21T05:53:50.144Z,6.05
2022-11-21T05:56:19.706Z,7.15
2022-11-21T06:01:36.733Z,7.30
2022-11-21T06:04:04.705Z,7.70
2022-11-21T06:06:32.540Z,8.52
2022-11-21T06:09:01.575Z,8.35
2022-11-21T06:11:29.317Z,9.85
2022-11-21T06:13:57.782Z,10.13
2022-11-21T06:16:25.820Z,11.18
2022-11-21T06:19:13.203Z,11.85
2022-11-21T06:21:41.022Z,13.32
2022-11-21T06:24:09.125Z,10.80
2022-11-21T06:26:36.895Z,12.13
2022-11-21T06:29:04.535Z,11.48
2022-11-21T06:31:34.571Z,13.38
2022-11-21T06:34:02.155Z,16.27
2022-11-21T06:36:30.056Z,14.35
2022-11-21T06:38:57.747Z,13.27
2022-11-21T06:41:30.286Z,12.95
2022-11-21T06:44:01.491Z,13.15
2022-11-21T06:46:29.646Z,14.30
2022-11-21T06:48:57.367Z,14.02
2022-11-21T06:51:26.288Z,12.52
2022-11-21T06:53:56.442Z,13.57
2022-11-21T06:56:29.288Z,12.10
2022-11-21T06:58:57.675Z,12.65
2022-11-21T07:01:25.699Z,13.80
2022-11-21T07:03:54.110Z,13.45
2022-11-21T07:06:22.334Z,13.43
2022-11-21T07:11:43.863Z,13.23
2022-11-21T07:14:12.046Z,13.35
2022-11-21T07:16:42.241Z,12.40
2022-11-21T07:19:09.893Z,12.80
2022-11-21T07:21:37.777Z,13.15
2022-11-21T07:24:07.156Z,13.52
2022-11-21T07:26:34.725Z,12.43
2022-11-21T07:29:02.283Z,13.18
2022-11-21T07:31:29.803Z,13.13
2022-11-21T07:33:57.441Z,13.55
2022-11-21T07:36:25.169Z,13.75
2022-11-21T07:38:52.940Z,13.38
2022-11-21T07:41:21.189Z,13.75
2022-11-21T07:43:48.985Z,14.45
2022-11-21T07:46:16.601Z,14.00
2022-11-21T07:48:44.353Z,14.15
2022-11-21T07:51:11.951Z,12.50
2022-11-21T07:53:40.164Z,12.57
2022-11-21T07:56:09.854Z,10.82
2022-11-21T07:58:37.647Z,10.35
2022-11-21T08:01:06.943Z,9.00
2022-11-21T08:03:34.721Z,9.20
2022-11-21T08:06:06.182Z,13.48
2022-11-21T08:08:34.837Z,9.73
2022-11-21T08:11:11.475Z,9.05
2022-11-21T08:13:41.205Z,10.07
2022-11-21T08:16:09.383Z,8.23
2022-11-21T08:18:36.944Z,8.13
2022-11-21T08:21:05.180Z,7.40
2022-11-21T08:23:33.234Z,6.47
2022-11-21T08:27:09.893Z,8.10
2022-11-21T08:29:42.911Z,7.95
2022-11-21T08:32:10.710Z,7.28
2022-11-21T08:34:38.477Z,9.57
2022-11-21T08:37:06.389Z,10.93
2022-11-21T08:39:34.592Z,10.32
2022-11-21T08:42:03.375Z,9.38
2022-11-21T08:44:35.142Z,9.75
2022-11-21T08:47:02.923Z,10.10
2022-11-21T08:49:30.679Z,8.48
2022-11-21T08:51:59.400Z,9.00
2022-11-21T08:54:27.405Z,8.30
2022-11-21T08:56:55.213Z,11.23
2022-11-21T08:59:22.960Z,11.10
2022-11-21T09:01:50.767Z,9.68
2022-11-21T09:04:18.751Z,10.02
2022-11-21T09:06:46.618Z,10.20
2022-11-21T09:09:14.159Z,10.15
2022-11-21T09:11:42.618Z,10.63
2022-11-21T09:14:28.846Z,11.25
2022-11-21T09:17:15.474Z,11.40
2022-11-21T09:19:43.345Z,12.23
2022-11-21T09:22:10.942Z,11.43
2022-11-21T09:24:38.518Z,11.45
2022-11-21T09:27:08.054Z,10.77
2022-11-21T09:29:35.672Z,11.65
2022-11-21T09:32:03.430Z,12.82
2022-11-21T09:34:31.903Z,12.13
2022-11-21T09:36:59.486Z,10.43
2022-11-21T09:39:27.555Z,10.48
2022-11-21T09:42:10.309Z,9.95
2022-11-21T09:44:55.836Z,10.10
2022-11-21T09:47:32.950Z,10.75
2022-11-21T09:50:04.154Z,12.13
2022-11-21T09:52:41.020Z,13.50
2022-11-21T09:55:32.953Z,13.95
2022-11-21T09:58:05.206Z,14.35
2022-11-21T10:00:33.105Z,15.38
2022-11-21T10:03:01.569Z,14.95
2022-11-21T10:05:58.021Z,23.83
2022-11-21T10:08:35.388Z,16.08
2022-11-21T10:11:33.582Z,15.45
2022-11-21T10:14:09.957Z,14.95
2022-11-21T10:17:17.796Z,15.60
2022-11-21T10:20:00.511Z,15.18
2022-11-21T10:22:42.115Z,16.25
2022-11-21T10:25:28.411Z,14.80
2022-11-21T10:28:11.116Z,15.52
2022-11-21T10:30:44.254Z,14.88
2022-11-21T10:33:30.938Z,14.30
2022-11-21T10:36:09.372Z,13.63
2022-11-21T10:38:40.683Z,14.15
2022-11-21T10:41:24.955Z,14.40
2022-11-21T10:44:55.561Z,14.15
2022-11-21T10:47:28.981Z,14.75
2022-11-21T10:50:32.912Z,12.73
2022-11-21T10:53:24.925Z,15.27
2022-11-21T10:56:02.972Z,15.40
2022-11-21T10:58:35.227Z,16.42
2022-11-21T11:01:03.099Z,15.73
2022-11-21T11:03:32.939Z,15.87
2022-11-21T11:06:00.539Z,18.77
2022-11-21T11:08:28.767Z,17.88
2022-11-21T11:11:02.626Z,18.60
2022-11-21T11:13:45.866Z,19.63
2022-11-21T11:16:19.255Z,19.80
2022-11-21T11:19:00.126Z,18.85
2022-11-21T11:21:47.837Z,20.50
2022-11-21T11:24:15.437Z,19.27
2022-11-21T11:26:49.519Z,20.48
2022-11-21T11:29:21.677Z,20.25
2022-11-21T11:32:10.546Z,23.48
2022-11-21T11:34:53.499Z,22.02
2022-11-21T11:37:41.320Z,23.83
2022-11-21T11:40:19.081Z,23.73
2022-11-21T11:43:31.688Z,24.02
2022-11-21T11:46:23.340Z,24.35
2022-11-21T11:49:19.170Z,23.98
2022-11-21T11:51:51.486Z,25.65
2022-11-21T11:54:24.495Z,27.40
2022-11-21T11:56:54.008Z,27.33
2022-11-21T12:00:05.023Z,29.23
2022-11-21T12:03:11.962Z,26.80
2022-11-21T12:05:51.842Z,27.65
2022-11-21T12:08:47.494Z,28.58
2022-11-21T12:11:41.185Z,28.83
2022-11-21T12:14:57.819Z,28.48
2022-11-21T12:17:56.129Z,27.75
2022-11-21T12:20:34.606Z,29.67
2022-11-21T12:23:04.977Z,30.48
2022-11-21T12:25:51.458Z,30.38
2022-11-21T12:28:30.840Z,28.63
2022-11-21T12:31:04.159Z,29.40
2022-11-21T12:33:38.303Z,27.13
2022-11-21T12:36:34.259Z,24.83
2022-11-21T12:39:23.527Z,25.10
2022-11-21T12:42:31.067Z,28.67
2022-11-21T12:45:18.680Z,29.55
2022-11-21T12:48:26.534Z,29.67
2022-11-21T12:51:49.993Z,30.95
2022-11-21T12:54:42.355Z,30.65
2022-11-21T12:57:14.579Z,32.70
2022-11-21T13:00:25.321Z,30.95
2022-11-21T13:03:02.911Z,31.63
2022-11-21T13:05:36.152Z,29.60
2022-11-21T13:08:25.757Z,31.90
2022-11-21T13:11:59.861Z,32.10
2022-11-21T13:14:39.300Z,30.20
2022-11-21T13:17:30.970Z,29.58
2022-11-21T13:20:05.406Z,31.63
2022-11-21T13:22:36.301Z,34.47
2022-11-21T13:25:31.997Z,32.40
2022-11-21T13:28:12.106Z,31.90
2022-11-21T13:31:01.729Z,32.53
2022-11-21T13:33:35.553Z,32.38
2022-11-21T13:36:07.968Z,29.80
2022-11-21T13:38:50.879Z,29.00
2022-11-21T13:41:55.280Z,31.70
2022-11-21T13:44:32.163Z,28.73
2022-11-21T13:47:00.843Z,27.98
2022-11-21T13:49:40.145Z,31.48
2022-11-21T13:52:20.393Z,29.30
2022-11-21T13:55:09.656Z,31.05
2022-11-21T13:57:46.056Z,32.10
2022-11-21T14:00:49.546Z,28.85
2022-11-21T14:03:31.559Z,27.60
2022-11-21T14:06:20.021Z,28.20
2022-11-21T14:09:15.236Z,28.25
2022-11-21T14:11:54.963Z,28.88
2022-11-21T14:17:05.424Z,26.08
2022-11-21T14:19:34.794Z,26.98
2022-11-21T14:22:02.582Z,27.85
2022-11-21T14:24:32.062Z,27.20
2022-11-21T14:26:59.803Z,28.23
2022-11-21T14:29:41.180Z,27.25
2022-11-21T14:32:15.621Z,27.15
2022-11-21T14:34:43.475Z,26.13
2022-11-21T14:37:13.351Z,26.05
2022-11-21T17:53:52.860Z,6.75
2022-11-21T17:56:23.482Z,7.05
2022-11-21T17:58:52.025Z,21.42
2022-11-21T18:01:20.551Z,13.38
2022-11-21T18:03:58.370Z,12.82
2022-11-21T18:06:28.600Z,6.78
2022-11-21T18:08:59.652Z,8.10
2022-11-21T18:11:39.224Z,7.53
2022-11-21T18:14:09.865Z,14.23
2022-11-21T18:16:47.554Z,6.93
2022-11-21T18:19:18.744Z,7.10
2022-11-21T18:21:46.578Z,9.00
2022-11-21T18:24:14.204Z,6.57
2022-11-21T18:26:41.822Z,7.28
2022-11-21T18:29:35.308Z,5.80
2022-11-21T18:31:57.954Z,6.13
2022-11-21T18:34:25.711Z,5.40
2022-11-21T18:36:54.349Z,5.57
2022-11-21T18:39:25.029Z,6.40
2022-11-21T18:41:52.617Z,4.75
2022-11-21T18:44:22.307Z,5.50
2022-11-21T18:46:50.883Z,4.97
2022-11-21T18:49:18.735Z,4.85
2022-11-21T18:51:46.518Z,5.63
2022-11-21T18:54:14.125Z,6.05
2022-11-21T18:56:41.728Z,8.25
2022-11-21T18:59:09.580Z,6.13
2022-11-21T19:01:39.763Z,7.25
2022-11-21T19:04:07.953Z,6.47
2022-11-21T19:06:35.760Z,5.28
2022-11-21T19:09:03.570Z,5.80
2022-11-21T19:11:31.368Z,7.35
2022-11-21T19:14:00.847Z,6.45
2022-11-21T19:16:34.501Z,5.47
2022-11-21T19:21:54.500Z,5.45
2022-11-21T19:24:22.220Z,5.28
2022-11-21T19:26:50.663Z,5.03
2022-11-21T19:29:18.979Z,5.60
2022-11-21T19:31:46.789Z,5.10
2022-11-21T19:34:15.467Z,5.00
2022-11-21T19:36:44.260Z,5.00
2022-11-21T19:39:12.108Z,4.78
2022-11-21T19:41:40.701Z,4.50
2022-11-21T19:44:08.906Z,5.10
2022-11-21T19:46:38.850Z,5.07
2022-11-21T19:49:08.406Z,4.72
2022-11-21T19:51:39.356Z,5.68
2022-11-21T19:54:08.344Z,5.95
2022-11-21T19:56:37.079Z,6.22
2022-11-21T19:59:05.003Z,5.05
2022-11-21T20:01:34.352Z,6.30
2022-11-21T20:04:05.552Z,8.07
2022-11-21T20:06:36.043Z,5.80
2022-11-21T20:09:03.639Z,5.72
2022-11-21T20:11:33.367Z,5.50
2022-11-21T20:14:03.152Z,4.70
2022-11-21T20:16:35.658Z,5.30
2022-11-21T20:19:17.839Z,5.47
2022-11-21T20:21:46.241Z,4.88
2022-11-21T20:24:14.259Z,5.07
2022-11-21T20:26:42.533Z,5.30
2022-11-21T20:29:13.078Z,7.05
2022-11-21T20:31:41.036Z,5.18
2022-11-21T20:34:15.157Z,4.55
2022-11-21T20:36:43.297Z,5.50
2022-11-21T20:39:16.818Z,4.45
2022-11-21T20:41:45.801Z,4.65
2022-11-21T20:47:06.430Z,4.90
2022-11-21T20:49:35.101Z,5.97
2022-11-21T20:53:43.822Z,4.68
2022-11-21T20:54:50.760Z,4.47
2022-11-21T20:57:18.790Z,5.57
2022-11-21T20:59:46.399Z,4.85
2022-11-21T21:02:26.451Z,4.72
2022-11-21T21:04:54.014Z,5.07
2022-11-21T21:07:21.708Z,4.50
2022-11-21T21:09:49.294Z,4.57
2022-11-21T21:12:17.057Z,5.03
2022-11-21T21:14:44.648Z,3.92
2022-11-21T21:17:12.290Z,4.53
2022-11-21T21:19:40.469Z,4.90
2022-11-21T21:22:09.188Z,4.68
2022-11-21T21:24:37.033Z,5.43
2022-11-21T21:27:05.010Z,4.85
2022-11-21T21:29:33.135Z,5.20
2022-11-21T21:32:01.092Z,4.53
2022-11-21T21:34:29.227Z,4.35
2022-11-21T21:36:57.334Z,4.68
2022-11-21T21:39:25.278Z,4.82
2022-11-21T21:41:53.193Z,4.60
2022-11-21T21:44:21.004Z,5.30
2022-11-21T21:46:48.825Z,5.05
2022-11-21T21:49:16.415Z,4.57
2022-11-21T21:51:44.099Z,4.72
2022-11-21T21:54:20.333Z,4.85
2022-11-21T21:56:49.633Z,4.82
2022-11-21T21:59:18.415Z,5.28
2022-11-21T22:01:46.969Z,20.70
2022-11-21T22:04:14.939Z,7.13
2022-11-21T22:06:43.411Z,7.18
2022-11-21T22:09:11.677Z,5.45
2022-11-21T22:11:39.673Z,6.30
2022-11-21T22:14:14.359Z,7.50
2022-11-21T22:16:44.287Z,6.63
2022-11-21T22:19:12.922Z,7.82
2022-11-21T22:21:40.567Z,5.43
2022-11-21T22:26:59.276Z,3.95
2022-11-21T22:29:27.844Z,4.25
2022-11-21T22:32:01.931Z,4.10
2022-11-21T22:34:30.186Z,4.07
2022-11-21T22:36:57.761Z,4.45
2022-11-21T22:39:25.945Z,4.55
2022-11-21T22:41:57.076Z,4.72
2022-11-21T22:44:27.558Z,4.28
2022-11-21T22:46:55.335Z,4.70
2022-11-21T22:49:22.864Z,4.60
2022-11-21T22:51:50.511Z,3.92
2022-11-21T22:54:19.756Z,4.15
2022-11-21T22:56:47.314Z,4.10
2022-11-21T22:59:22.607Z,4.65
2022-11-21T23:01:50.701Z,3.70
2022-11-21T23:04:18.245Z,8.05
